sensor_id;sensor_type;location;lat;lon;timestamp;pressure;altitude;pressure_sealevel;temperature;humidity
55191;BME280;41070;50.360;18.742;2022-09-09T00:00:59;98350.05;;;16.73;95.88
55191;BME280;41070;50.360;18.742;2022-09-09T00:03:43;98348.98;;;16.69;95.55
55191;BME280;41070;50.360;18.742;2022-09-09T00:06:29;98348.21;;;16.67;95.86
55191;BME280;41070;50.360;18.742;2022-09-09T00:09:02;98346.90;;;16.64;95.88
55191;BME280;41070;50.360;18.742;2022-09-09T00:11:43;98349.84;;;16.61;95.87
55191;BME280;41070;50.360;18.742;2022-09-09T00:14:25;98350.23;;;16.58;96.04
55191;BME280;41070;50.360;18.742;2022-09-09T00:16:58;98354.02;;;16.56;96.13
55191;BME280;41070;50.360;18.742;2022-09-09T00:19:39;98355.09;;;16.56;96.44
55191;BME280;41070;50.360;18.742;2022-09-09T00:22:14;98356.10;;;16.57;96.83
55191;BME280;41070;50.360;18.742;2022-09-09T00:24:45;98356.48;;;16.58;96.85
55191;BME280;41070;50.360;18.742;2022-09-09T00:27:17;98353.40;;;16.58;96.71
55191;BME280;41070;50.360;18.742;2022-09-09T00:30:19;98356.64;;;16.56;96.94
55191;BME280;41070;50.360;18.742;2022-09-09T00:32:53;98357.18;;;16.57;97.00
55191;BME280;41070;50.360;18.742;2022-09-09T00:35:49;98354.70;;;16.55;97.02
55191;BME280;41070;50.360;18.742;2022-09-09T00:41:12;98355.95;;;16.49;96.84
55191;BME280;41070;50.360;18.742;2022-09-09T00:43:43;98356.95;;;16.49;97.14
55191;BME280;41070;50.360;18.742;2022-09-09T00:55:48;98366.82;;;16.59;97.86
55191;BME280;41070;50.360;18.742;2022-09-09T00:58:32;98370.52;;;16.62;97.76
55191;BME280;41070;50.360;18.742;2022-09-09T01:01:09;98368.67;;;16.64;97.43
55191;BME280;41070;50.360;18.742;2022-09-09T01:06:38;98377.77;;;16.67;97.76
55191;BME280;41070;50.360;18.742;2022-09-09T01:09:27;98375.36;;;16.72;97.69
55191;BME280;41070;50.360;18.742;2022-09-09T01:12:25;98374.20;;;16.77;97.50
55191;BME280;41070;50.360;18.742;2022-09-09T01:15:09;98375.98;;;16.79;97.45
55191;BME280;41070;50.360;18.742;2022-09-09T01:26:48;98389.97;;;16.85;97.46
55191;BME280;41070;50.360;18.742;2022-09-09T01:29:20;98390.13;;;16.87;97.51
55191;BME280;41070;50.360;18.742;2022-09-09T01:32:43;98388.27;;;16.89;97.56
55191;BME280;41070;50.360;18.742;2022-09-09T01:37:59;98396.45;;;16.89;97.29
55191;BME280;41070;50.360;18.742;2022-09-09T01:40:52;98396.23;;;16.90;97.35
55191;BME280;41070;50.360;18.742;2022-09-09T01:43:59;98393.81;;;16.92;97.16
55191;BME280;41070;50.360;18.742;2022-09-09T01:46:47;98399.92;;;16.91;96.96
55191;BME280;41070;50.360;18.742;2022-09-09T01:49:35;98400.61;;;16.90;96.91
55191;BME280;41070;50.360;18.742;2022-09-09T01:52:24;98406.79;;;16.89;96.76
55191;BME280;41070;50.360;18.742;2022-09-09T01:54:52;98406.48;;;16.87;97.12
55191;BME280;41070;50.360;18.742;2022-09-09T02:00:35;98408.56;;;16.85;97.07
55191;BME280;41070;50.360;18.742;2022-09-09T02:03:34;98408.41;;;16.86;97.46
55191;BME280;41070;50.360;18.742;2022-09-09T02:06:30;98406.48;;;16.88;97.76
55191;BME280;41070;50.360;18.742;2022-09-09T02:09:21;98409.80;;;16.90;97.15
55191;BME280;41070;50.360;18.742;2022-09-09T02:12:14;98413.74;;;16.89;97.35
55191;BME280;41070;50.360;18.742;2022-09-09T02:15:07;98413.52;;;16.89;97.50
55191;BME280;41070;50.360;18.742;2022-09-09T02:17:54;98416.59;;;16.92;97.13
55191;BME280;41070;50.360;18.742;2022-09-09T02:20:51;98417.29;;;16.91;97.22
55191;BME280;41070;50.360;18.742;2022-09-09T02:23:57;98416.23;;;16.90;96.80
55191;BME280;41070;50.360;18.742;2022-09-09T02:26:47;98424.17;;;16.88;97.17
55191;BME280;41070;50.360;18.742;2022-09-09T02:29:22;98429.10;;;16.88;96.95
55191;BME280;41070;50.360;18.742;2022-09-09T02:32:00;98429.41;;;16.86;97.01
55191;BME280;41070;50.360;18.742;2022-09-09T02:37:19;98439.05;;;16.79;96.85
55191;BME280;41070;50.360;18.742;2022-09-09T02:40:27;98442.20;;;16.76;96.91
55191;BME280;41070;50.360;18.742;2022-09-09T02:42:56;98442.83;;;16.72;96.96
55191;BME280;41070;50.360;18.742;2022-09-09T02:48:41;98438.42;;;16.66;96.93
55191;BME280;41070;50.360;18.742;2022-09-09T02:51:35;98437.81;;;16.64;97.31
55191;BME280;41070;50.360;18.742;2022-09-09T02:54:48;98441.60;;;16.62;97.32
55191;BME280;41070;50.360;18.742;2022-09-09T02:57:39;98437.74;;;16.59;96.84
55191;BME280;41070;50.360;18.742;2022-09-09T03:00:22;98435.34;;;16.54;97.16
55191;BME280;41070;50.360;18.742;2022-09-09T03:02:50;98437.73;;;16.49;96.78
55191;BME280;41070;50.360;18.742;2022-09-09T03:05:18;98441.81;;;16.45;96.77
55191;BME280;41070;50.360;18.742;2022-09-09T03:07:46;98447.38;;;16.42;96.91
55191;BME280;41070;50.360;18.742;2022-09-09T03:10:16;98448.14;;;16.39;96.88
55191;BME280;41070;50.360;18.742;2022-09-09T03:12:44;98446.05;;;16.34;96.79
55191;BME280;41070;50.360;18.742;2022-09-09T03:15:12;98445.89;;;16.29;96.85
55191;BME280;41070;50.360;18.742;2022-09-09T03:17:40;98443.95;;;16.25;96.90
55191;BME280;41070;50.360;18.742;2022-09-09T03:20:09;98447.56;;;16.21;96.65
55191;BME280;41070;50.360;18.742;2022-09-09T03:22:36;98447.17;;;16.14;96.57
55191;BME280;41070;50.360;18.742;2022-09-09T03:25:04;98447.23;;;16.07;96.56
55191;BME280;41070;50.360;18.742;2022-09-09T03:27:32;98449.92;;;16.02;96.62
55191;BME280;41070;50.360;18.742;2022-09-09T03:30:00;98448.06;;;15.97;96.62
55191;BME280;41070;50.360;18.742;2022-09-09T03:32:29;98449.97;;;15.93;96.96
55191;BME280;41070;50.360;18.742;2022-09-09T03:34:57;98451.82;;;15.91;97.26
55191;BME280;41070;50.360;18.742;2022-09-09T03:37:25;98454.74;;;15.88;96.99
55191;BME280;41070;50.360;18.742;2022-09-09T03:39:52;98456.19;;;15.84;96.86
55191;BME280;41070;50.360;18.742;2022-09-09T03:42:21;98458.70;;;15.80;96.67
55191;BME280;41070;50.360;18.742;2022-09-09T03:44:49;98461.93;;;15.75;96.93
55191;BME280;41070;50.360;18.742;2022-09-09T03:47:18;98466.89;;;15.71;96.82
55191;BME280;41070;50.360;18.742;2022-09-09T03:49:48;98472.35;;;15.68;96.81
55191;BME280;41070;50.360;18.742;2022-09-09T03:52:15;98469.94;;;15.63;96.45
55191;BME280;41070;50.360;18.742;2022-09-09T03:54:44;98473.63;;;15.58;96.53
55191;BME280;41070;50.360;18.742;2022-09-09T03:57:12;98475.84;;;15.55;96.86
55191;BME280;41070;50.360;18.742;2022-09-09T03:59:43;98478.21;;;15.51;96.32
55191;BME280;41070;50.360;18.742;2022-09-09T04:02:11;98478.64;;;15.45;96.22
55191;BME280;41070;50.360;18.742;2022-09-09T04:04:38;98477.67;;;15.36;95.92
55191;BME280;41070;50.360;18.742;2022-09-09T04:07:06;98476.46;;;15.28;95.89
55191;BME280;41070;50.360;18.742;2022-09-09T04:09:34;98477.44;;;15.24;96.51
55191;BME280;41070;50.360;18.742;2022-09-09T04:12:02;98478.98;;;15.23;96.75
55191;BME280;41070;50.360;18.742;2022-09-09T04:14:29;98479.97;;;15.23;96.85
55191;BME280;41070;50.360;18.742;2022-09-09T04:16:57;98481.36;;;15.24;97.19
55191;BME280;41070;50.360;18.742;2022-09-09T04:19:25;98483.28;;;15.23;96.98
55191;BME280;41070;50.360;18.742;2022-09-09T04:21:53;98475.04;;;15.22;96.96
55191;BME280;41070;50.360;18.742;2022-09-09T04:24:20;98472.27;;;15.21;96.90
55191;BME280;41070;50.360;18.742;2022-09-09T04:26:48;98476.89;;;15.21;96.81
55191;BME280;41070;50.360;18.742;2022-09-09T04:29:16;98477.27;;;15.19;97.05
55191;BME280;41070;50.360;18.742;2022-09-09T04:31:43;98479.04;;;15.21;97.23
55191;BME280;41070;50.360;18.742;2022-09-09T04:34:11;98480.65;;;15.21;97.11
55191;BME280;41070;50.360;18.742;2022-09-09T04:36:39;98483.44;;;15.22;97.28
55191;BME280;41070;50.360;18.742;2022-09-09T04:39:07;98480.30;;;15.25;97.41
55191;BME280;41070;50.360;18.742;2022-09-09T04:41:41;98479.40;;;15.28;97.45
55191;BME280;41070;50.360;18.742;2022-09-09T04:47:37;98473.37;;;15.26;96.89
55191;BME280;41070;50.360;18.742;2022-09-09T04:50:05;98475.91;;;15.27;97.28
55191;BME280;41070;50.360;18.742;2022-09-09T04:52:34;98480.63;;;15.29;97.13
55191;BME280;41070;50.360;18.742;2022-09-09T04:55:03;98483.41;;;15.31;97.17
55191;BME280;41070;50.360;18.742;2022-09-09T04:57:36;98486.50;;;15.33;97.29
55191;BME280;41070;50.360;18.742;2022-09-09T05:00:05;98489.98;;;15.35;97.42
55191;BME280;41070;50.360;18.742;2022-09-09T05:02:38;98489.71;;;15.40;97.49
55191;BME280;41070;50.360;18.742;2022-09-09T05:05:13;98492.65;;;15.44;97.37
55191;BME280;41070;50.360;18.742;2022-09-09T05:07:45;98491.69;;;15.50;97.38
55191;BME280;41070;50.360;18.742;2022-09-09T05:10:19;98493.92;;;15.51;97.07
55191;BME280;41070;50.360;18.742;2022-09-09T05:12:53;98496.48;;;15.54;97.23
55191;BME280;41070;50.360;18.742;2022-09-09T05:15:29;98496.35;;;15.59;97.33
55191;BME280;41070;50.360;18.742;2022-09-09T05:18:16;98499.45;;;15.64;96.91
55191;BME280;41070;50.360;18.742;2022-09-09T05:21:22;98497.46;;;15.64;96.95
55191;BME280;41070;50.360;18.742;2022-09-09T05:23:57;98503.39;;;15.64;96.74
55191;BME280;41070;50.360;18.742;2022-09-09T05:26:27;98511.17;;;15.65;96.83
55191;BME280;41070;50.360;18.742;2022-09-09T05:29:01;98510.95;;;15.67;96.55
55191;BME280;41070;50.360;18.742;2022-09-09T05:31:38;98514.27;;;15.69;96.58
55191;BME280;41070;50.360;18.742;2022-09-09T05:34:20;98511.77;;;15.73;96.92
55191;BME280;41070;50.360;18.742;2022-09-09T05:36:55;98508.88;;;15.78;96.95
55191;BME280;41070;50.360;18.742;2022-09-09T05:39:47;98507.37;;;15.86;96.90
55191;BME280;41070;50.360;18.742;2022-09-09T05:42:25;98510.24;;;15.91;96.84
55191;BME280;41070;50.360;18.742;2022-09-09T05:45:24;98513.59;;;15.97;96.93
55191;BME280;41070;50.360;18.742;2022-09-09T05:48:20;98516.30;;;16.03;97.09
55191;BME280;41070;50.360;18.742;2022-09-09T05:51:30;98515.79;;;16.11;96.94
55191;BME280;41070;50.360;18.742;2022-09-09T05:58:28;98522.11;;;16.34;96.61
55191;BME280;41070;50.360;18.742;2022-09-09T06:01:31;98517.57;;;16.40;96.43
55191;BME280;41070;50.360;18.742;2022-09-09T06:04:11;98525.23;;;16.50;96.63
55191;BME280;41070;50.360;18.742;2022-09-09T06:06:50;98523.24;;;16.63;96.29
55191;BME280;41070;50.360;18.742;2022-09-09T06:09:23;98511.20;;;16.69;96.09
55191;BME280;41070;50.360;18.742;2022-09-09T06:11:55;98516.07;;;16.75;95.97
55191;BME280;41070;50.360;18.742;2022-09-09T06:14:40;98521.73;;;16.83;96.01
55191;BME280;41070;50.360;18.742;2022-09-09T06:17:12;98523.67;;;16.92;95.95
55191;BME280;41070;50.360;18.742;2022-09-09T06:19:44;98523.52;;;17.01;95.80
55191;BME280;41070;50.360;18.742;2022-09-09T09:50:19;98549.06;;;21.78;72.66
55191;BME280;41070;50.360;18.742;2022-09-09T10:19:07;98558.34;;;22.13;71.02
55191;BME280;41070;50.360;18.742;2022-09-09T11:55:26;98581.41;;;23.41;62.72
55191;BME280;41070;50.360;18.742;2022-09-09T12:58:11;98579.61;;;23.85;57.57
55191;BME280;41070;50.360;18.742;2022-09-09T13:01:28;98572.15;;;23.89;57.31
55191;BME280;41070;50.360;18.742;2022-09-09T13:03:58;98575.08;;;23.93;57.65
55191;BME280;41070;50.360;18.742;2022-09-09T13:06:29;98574.88;;;23.91;57.60
55191;BME280;41070;50.360;18.742;2022-09-09T13:09:00;98579.06;;;23.90;57.69
55191;BME280;41070;50.360;18.742;2022-09-09T13:11:41;98577.36;;;23.92;57.36
55191;BME280;41070;50.360;18.742;2022-09-09T13:14:31;98572.08;;;23.83;56.11
55191;BME280;41070;50.360;18.742;2022-09-09T13:17:03;98563.40;;;23.78;56.38
55191;BME280;41070;50.360;18.742;2022-09-09T13:19:35;98559.71;;;23.81;56.50
55191;BME280;41070;50.360;18.742;2022-09-09T13:22:36;98559.60;;;23.82;56.37
55191;BME280;41070;50.360;18.742;2022-09-09T13:30:30;98545.95;;;23.93;56.46
55191;BME280;41070;50.360;18.742;2022-09-09T13:35:33;98538.74;;;23.94;56.44
55191;BME280;41070;50.360;18.742;2022-09-09T13:38:08;98533.13;;;23.92;55.28
55191;BME280;41070;50.360;18.742;2022-09-09T13:40:37;98530.02;;;23.83;54.58
55191;BME280;41070;50.360;18.742;2022-09-09T13:43:14;98528.34;;;23.69;53.97
55191;BME280;41070;50.360;18.742;2022-09-09T13:46:19;98531.51;;;23.44;52.95
55191;BME280;41070;50.360;18.742;2022-09-09T13:52:12;98526.36;;;23.03;52.84
55191;BME280;41070;50.360;18.742;2022-09-09T13:54:42;98518.11;;;22.93;53.52
55191;BME280;41070;50.360;18.742;2022-09-09T13:57:17;98514.04;;;22.91;53.76
55191;BME280;41070;50.360;18.742;2022-09-09T14:00:10;98512.70;;;22.94;54.85
55191;BME280;41070;50.360;18.742;2022-09-09T14:03:03;98510.58;;;23.02;55.54
55191;BME280;41070;50.360;18.742;2022-09-09T14:05:41;98512.80;;;23.07;55.93
55191;BME280;41070;50.360;18.742;2022-09-09T14:08:24;98511.30;;;23.11;56.41
55191;BME280;41070;50.360;18.742;2022-09-09T14:11:13;98506.69;;;23.11;55.98
55191;BME280;41070;50.360;18.742;2022-09-09T14:13:42;98503.56;;;23.06;54.92
55191;BME280;41070;50.360;18.742;2022-09-09T14:16:10;98503.98;;;23.05;55.57
55191;BME280;41070;50.360;18.742;2022-09-09T14:19:01;98505.84;;;23.11;55.84
55191;BME280;41070;50.360;18.742;2022-09-09T14:22:09;98506.77;;;23.12;55.61
55191;BME280;41070;50.360;18.742;2022-09-09T14:24:37;98502.20;;;23.03;54.91
55191;BME280;41070;50.360;18.742;2022-09-09T14:27:27;98507.01;;;23.01;55.00
55191;BME280;41070;50.360;18.742;2022-09-09T14:30:15;98507.92;;;23.01;54.67
55191;BME280;41070;50.360;18.742;2022-09-09T14:33:22;98509.05;;;23.00;54.81
55191;BME280;41070;50.360;18.742;2022-09-09T15:41:07;98503.33;;;21.93;59.51
55191;BME280;41070;50.360;18.742;2022-09-09T15:43:38;98509.05;;;21.92;59.44
55191;BME280;41070;50.360;18.742;2022-09-09T15:46:30;98511.96;;;21.90;60.01
55191;BME280;41070;50.360;18.742;2022-09-09T15:49:06;98509.64;;;21.85;59.68
55191;BME280;41070;50.360;18.742;2022-09-09T15:51:46;98510.29;;;21.80;59.81
55191;BME280;41070;50.360;18.742;2022-09-09T15:54:25;98509.59;;;21.72;59.79
55191;BME280;41070;50.360;18.742;2022-09-09T15:56:56;98508.03;;;21.64;59.94
55191;BME280;41070;50.360;18.742;2022-09-09T15:59:26;98507.71;;;21.57;59.99
55191;BME280;41070;50.360;18.742;2022-09-09T16:01:57;98507.42;;;21.51;60.77
55191;BME280;41070;50.360;18.742;2022-09-09T16:04:28;98509.52;;;21.47;61.58
55191;BME280;41070;50.360;18.742;2022-09-09T16:06:59;98505.85;;;21.43;62.21
55191;BME280;41070;50.360;18.742;2022-09-09T16:09:32;98500.26;;;21.38;62.83
55191;BME280;41070;50.360;18.742;2022-09-09T16:12:00;98499.70;;;21.34;63.74
55191;BME280;41070;50.360;18.742;2022-09-09T16:14:36;98495.76;;;21.28;64.52
55191;BME280;41070;50.360;18.742;2022-09-09T16:17:05;98491.16;;;21.24;65.26
55191;BME280;41070;50.360;18.742;2022-09-09T16:19:33;98490.43;;;21.22;65.65
55191;BME280;41070;50.360;18.742;2022-09-09T16:22:02;98485.95;;;21.20;66.06
55191;BME280;41070;50.360;18.742;2022-09-09T16:24:30;98485.46;;;21.17;66.38
55191;BME280;41070;50.360;18.742;2022-09-09T16:26:58;98478.08;;;21.13;66.90
55191;BME280;41070;50.360;18.742;2022-09-09T16:29:26;98474.42;;;21.13;67.22
55191;BME280;41070;50.360;18.742;2022-09-09T16:31:54;98474.40;;;21.14;67.61
55191;BME280;41070;50.360;18.742;2022-09-09T16:34:21;98477.33;;;21.11;68.05
55191;BME280;41070;50.360;18.742;2022-09-09T16:36:49;98484.34;;;21.02;68.75
55191;BME280;41070;50.360;18.742;2022-09-09T16:39:18;98481.85;;;20.93;69.03
55191;BME280;41070;50.360;18.742;2022-09-09T16:41:48;98484.61;;;20.85;69.34
55191;BME280;41070;50.360;18.742;2022-09-09T16:44:18;98476.64;;;20.73;69.83
55191;BME280;41070;50.360;18.742;2022-09-09T16:46:47;98478.92;;;20.62;70.06
55191;BME280;41070;50.360;18.742;2022-09-09T16:49:18;98484.19;;;20.51;70.59
55191;BME280;41070;50.360;18.742;2022-09-09T16:51:49;98487.11;;;20.41;70.88
55191;BME280;41070;50.360;18.742;2022-09-09T16:54:19;98484.21;;;20.33;71.37
55191;BME280;41070;50.360;18.742;2022-09-09T16:56:49;98487.42;;;20.25;71.65
55191;BME280;41070;50.360;18.742;2022-09-09T16:59:41;98490.52;;;20.14;71.90
55191;BME280;41070;50.360;18.742;2022-09-09T17:02:10;98492.34;;;20.05;72.66
55191;BME280;41070;50.360;18.742;2022-09-09T17:04:38;98490.53;;;20.01;72.89
55191;BME280;41070;50.360;18.742;2022-09-09T17:07:07;98491.02;;;20.00;72.92
55191;BME280;41070;50.360;18.742;2022-09-09T17:09:54;98486.38;;;19.93;72.93
55191;BME280;41070;50.360;18.742;2022-09-09T17:12:22;98481.48;;;19.83;72.84
55191;BME280;41070;50.360;18.742;2022-09-09T17:14:58;98482.90;;;19.72;73.31
55191;BME280;41070;50.360;18.742;2022-09-09T17:17:31;98485.15;;;19.63;73.70
55191;BME280;41070;50.360;18.742;2022-09-09T17:19:59;98483.59;;;19.58;73.87
55191;BME280;41070;50.360;18.742;2022-09-09T17:22:29;98489.08;;;19.53;74.20
55191;BME280;41070;50.360;18.742;2022-09-09T17:25:03;98490.27;;;19.50;74.15
55191;BME280;41070;50.360;18.742;2022-09-09T17:27:33;98493.55;;;19.46;74.35
55191;BME280;41070;50.360;18.742;2022-09-09T17:30:01;98493.67;;;19.41;74.39
55191;BME280;41070;50.360;18.742;2022-09-09T17:32:45;98499.52;;;19.39;74.68
55191;BME280;41070;50.360;18.742;2022-09-09T17:35:33;98499.80;;;19.36;75.17
55191;BME280;41070;50.360;18.742;2022-09-09T17:40:46;98503.52;;;19.34;75.25
55191;BME280;41070;50.360;18.742;2022-09-09T17:43:14;98502.55;;;19.31;75.21
55191;BME280;41070;50.360;18.742;2022-09-09T17:48:21;98499.59;;;19.25;75.77
55191;BME280;41070;50.360;18.742;2022-09-09T17:53:37;98502.02;;;19.20;76.07
55191;BME280;41070;50.360;18.742;2022-09-09T17:56:36;98497.92;;;19.11;75.32
55191;BME280;41070;50.360;18.742;2022-09-09T18:02:03;98506.14;;;18.93;74.66
55191;BME280;41070;50.360;18.742;2022-09-09T18:07:46;98513.12;;;18.84;75.48
55191;BME280;41070;50.360;18.742;2022-09-09T18:10:17;98515.35;;;18.84;75.86
55191;BME280;41070;50.360;18.742;2022-09-09T18:13:04;98513.17;;;18.86;76.56
55191;BME280;41070;50.360;18.742;2022-09-09T18:15:53;98511.87;;;18.85;76.49
55191;BME280;41070;50.360;18.742;2022-09-09T18:21:19;98513.05;;;18.76;76.06
55191;BME280;41070;50.360;18.742;2022-09-09T18:27:00;98515.47;;;18.65;75.93
55191;BME280;41070;50.360;18.742;2022-09-09T18:32:26;98521.11;;;18.64;76.96
55191;BME280;41070;50.360;18.742;2022-09-09T18:37:59;98524.98;;;18.67;77.05
55191;BME280;41070;50.360;18.742;2022-09-09T18:40:49;98527.83;;;18.66;76.96
55191;BME280;41070;50.360;18.742;2022-09-09T18:43:36;98531.64;;;18.68;77.37
55191;BME280;41070;50.360;18.742;2022-09-09T18:46:09;98532.48;;;18.68;77.52
55191;BME280;41070;50.360;18.742;2022-09-09T18:48:57;98534.02;;;18.70;77.56
55191;BME280;41070;50.360;18.742;2022-09-09T18:51:52;98531.54;;;18.70;77.71
55191;BME280;41070;50.360;18.742;2022-09-09T18:54:30;98536.73;;;18.69;78.03
55191;BME280;41070;50.360;18.742;2022-09-09T18:57:38;98536.73;;;18.69;78.53
55191;BME280;41070;50.360;18.742;2022-09-09T19:16:36;98537.66;;;18.68;79.82
55191;BME280;41070;50.360;18.742;2022-09-09T19:35:59;98532.55;;;18.59;78.64
55191;BME280;41070;50.360;18.742;2022-09-09T19:38:28;98528.93;;;18.54;78.50
55191;BME280;41070;50.360;18.742;2022-09-09T19:41:10;98530.11;;;18.50;78.46
55191;BME280;41070;50.360;18.742;2022-09-09T19:46:15;98528.08;;;18.42;78.13
55191;BME280;41070;50.360;18.742;2022-09-09T19:48:45;98528.19;;;18.36;78.16
55191;BME280;41070;50.360;18.742;2022-09-09T19:51:16;98525.33;;;18.34;78.09
55191;BME280;41070;50.360;18.742;2022-09-09T19:53:46;98527.71;;;18.36;78.06
55191;BME280;41070;50.360;18.742;2022-09-09T19:56:35;98528.11;;;18.37;78.02
55191;BME280;41070;50.360;18.742;2022-09-09T19:59:06;98529.49;;;18.38;78.06
55191;BME280;41070;50.360;18.742;2022-09-09T20:01:41;98527.32;;;18.39;78.00
55191;BME280;41070;50.360;18.742;2022-09-09T20:04:11;98528.33;;;18.38;77.71
55191;BME280;41070;50.360;18.742;2022-09-09T20:06:42;98529.18;;;18.39;77.83
55191;BME280;41070;50.360;18.742;2022-09-09T20:09:20;98531.04;;;18.39;77.81
55191;BME280;41070;50.360;18.742;2022-09-09T20:11:53;98529.03;;;18.37;77.68
55191;BME280;41070;50.360;18.742;2022-09-09T20:14:21;98528.18;;;18.36;77.67
55191;BME280;41070;50.360;18.742;2022-09-09T20:16:49;98533.36;;;18.36;77.87
55191;BME280;41070;50.360;18.742;2022-09-09T20:19:19;98533.30;;;18.35;78.25
55191;BME280;41070;50.360;18.742;2022-09-09T20:21:47;98531.74;;;18.34;78.46
55191;BME280;41070;50.360;18.742;2022-09-09T20:24:20;98531.45;;;18.32;78.34
55191;BME280;41070;50.360;18.742;2022-09-09T20:26:49;98528.91;;;18.30;78.59
55191;BME280;41070;50.360;18.742;2022-09-09T20:29:19;98527.16;;;18.27;78.62
55191;BME280;41070;50.360;18.742;2022-09-09T20:31:47;98529.25;;;18.26;78.99
55191;BME280;41070;50.360;18.742;2022-09-09T20:34:18;98534.52;;;18.25;79.26
55191;BME280;41070;50.360;18.742;2022-09-09T20:36:48;98531.27;;;18.23;79.18
55191;BME280;41070;50.360;18.742;2022-09-09T20:39:19;98531.89;;;18.23;79.21
55191;BME280;41070;50.360;18.742;2022-09-09T20:41:54;98529.18;;;18.23;79.33
55191;BME280;41070;50.360;18.742;2022-09-09T20:44:23;98527.26;;;18.22;79.20
55191;BME280;41070;50.360;18.742;2022-09-09T20:46:53;98526.50;;;18.18;79.40
55191;BME280;41070;50.360;18.742;2022-09-09T20:49:33;98524.27;;;18.15;79.67
55191;BME280;41070;50.360;18.742;2022-09-09T20:52:01;98523.98;;;18.11;79.76
55191;BME280;41070;50.360;18.742;2022-09-09T20:54:40;98526.84;;;18.09;80.01
55191;BME280;41070;50.360;18.742;2022-09-09T20:57:27;98523.38;;;18.07;79.95
55191;BME280;41070;50.360;18.742;2022-09-09T20:59:59;98524.71;;;18.03;79.97
55191;BME280;41070;50.360;18.742;2022-09-09T21:02:27;98525.13;;;18.02;80.14
55191;BME280;41070;50.360;18.742;2022-09-09T21:04:55;98529.74;;;18.02;80.42
55191;BME280;41070;50.360;18.742;2022-09-09T21:07:22;98524.40;;;18.03;80.23
55191;BME280;41070;50.360;18.742;2022-09-09T21:09:58;98521.33;;;18.00;80.23
55191;BME280;41070;50.360;18.742;2022-09-09T21:12:41;98520.42;;;17.93;80.07
55191;BME280;41070;50.360;18.742;2022-09-09T21:15:18;98522.84;;;17.87;80.05
55191;BME280;41070;50.360;18.742;2022-09-09T21:17:45;98523.23;;;17.84;80.51
55191;BME280;41070;50.360;18.742;2022-09-09T21:20:14;98524.54;;;17.80;80.58
55191;BME280;41070;50.360;18.742;2022-09-09T21:23:03;98528.34;;;17.77;80.58
55191;BME280;41070;50.360;18.742;2022-09-09T21:25:31;98531.20;;;17.76;80.95
55191;BME280;41070;50.360;18.742;2022-09-09T21:28:00;98532.44;;;17.76;81.26
55191;BME280;41070;50.360;18.742;2022-09-09T21:30:27;98531.29;;;17.74;81.12
55191;BME280;41070;50.360;18.742;2022-09-09T21:32:57;98530.75;;;17.71;81.24
55191;BME280;41070;50.360;18.742;2022-09-09T21:35:27;98531.92;;;17.68;81.59
55191;BME280;41070;50.360;18.742;2022-09-09T21:37:57;98532.77;;;17.66;81.53
55191;BME280;41070;50.360;18.742;2022-09-09T21:40:25;98532.02;;;17.65;81.18
55191;BME280;41070;50.360;18.742;2022-09-09T21:42:54;98537.04;;;17.63;81.45
55191;BME280;41070;50.360;18.742;2022-09-09T21:45:21;98536.05;;;17.59;81.33
55191;BME280;41070;50.360;18.742;2022-09-09T21:47:51;98532.42;;;17.54;81.47
55191;BME280;41070;50.360;18.742;2022-09-09T21:50:19;98528.33;;;17.52;81.62
55191;BME280;41070;50.360;18.742;2022-09-09T21:52:47;98525.40;;;17.49;81.90
55191;BME280;41070;50.360;18.742;2022-09-09T21:55:16;98521.23;;;17.46;81.61
55191;BME280;41070;50.360;18.742;2022-09-09T21:57:44;98522.46;;;17.44;82.07
55191;BME280;41070;50.360;18.742;2022-09-09T22:00:12;98522.85;;;17.42;82.03
55191;BME280;41070;50.360;18.742;2022-09-09T22:02:43;98522.71;;;17.39;82.15
55191;BME280;41070;50.360;18.742;2022-09-09T22:05:11;98520.63;;;17.39;82.18
55191;BME280;41070;50.360;18.742;2022-09-09T22:07:39;98519.23;;;17.39;82.49
55191;BME280;41070;50.360;18.742;2022-09-09T22:10:09;98519.31;;;17.39;82.64
55191;BME280;41070;50.360;18.742;2022-09-09T22:12:38;98514.69;;;17.37;82.90
55191;BME280;41070;50.360;18.742;2022-09-09T22:15:08;98517.85;;;17.34;82.79
55191;BME280;41070;50.360;18.742;2022-09-09T22:17:36;98516.31;;;17.35;82.98
55191;BME280;41070;50.360;18.742;2022-09-09T22:20:06;98521.94;;;17.38;83.34
55191;BME280;41070;50.360;18.742;2022-09-09T22:22:38;98515.83;;;17.41;83.03
55191;BME280;41070;50.360;18.742;2022-09-09T22:25:06;98516.83;;;17.43;83.16
55191;BME280;41070;50.360;18.742;2022-09-09T22:27:35;98518.83;;;17.43;83.20
55191;BME280;41070;50.360;18.742;2022-09-09T22:30:03;98520.38;;;17.43;83.27
55191;BME280;41070;50.360;18.742;2022-09-09T22:32:31;98515.83;;;17.42;83.22
55191;BME280;41070;50.360;18.742;2022-09-09T22:35:00;98517.45;;;17.41;83.38
55191;BME280;41070;50.360;18.742;2022-09-09T22:37:28;98517.61;;;17.39;83.33
55191;BME280;41070;50.360;18.742;2022-09-09T22:39:56;98517.77;;;17.38;83.41
55191;BME280;41070;50.360;18.742;2022-09-09T22:42:24;98518.92;;;17.37;83.64
55191;BME280;41070;50.360;18.742;2022-09-09T22:45:09;98521.09;;;17.37;83.49
55191;BME280;41070;50.360;18.742;2022-09-09T22:47:38;98519.87;;;17.36;83.62
55191;BME280;41070;50.360;18.742;2022-09-09T22:50:09;98522.80;;;17.35;83.81
55191;BME280;41070;50.360;18.742;2022-09-09T22:52:37;98522.57;;;17.36;84.01
55191;BME280;41070;50.360;18.742;2022-09-09T22:55:06;98521.41;;;17.33;84.16
55191;BME280;41070;50.360;18.742;2022-09-09T22:57:38;98524.73;;;17.33;83.80
55191;BME280;41070;50.360;18.742;2022-09-09T23:00:07;98523.58;;;17.31;83.91
55191;BME280;41070;50.360;18.742;2022-09-09T23:02:35;98526.35;;;17.30;83.92
55191;BME280;41070;50.360;18.742;2022-09-09T23:05:31;98542.34;;;17.31;84.07